createdAt,value
2024-01-21T00:01:41.906Z,73.11
2024-01-21T00:04:43.660Z,72.71
2024-01-21T00:07:45.876Z,72.65
2024-01-21T00:10:47.569Z,73.40
2024-01-21T00:13:49.318Z,73.41
2024-01-21T00:16:51.058Z,73.90
2024-01-21T00:19:52.814Z,73.45
2024-01-21T00:22:54.576Z,72.93
2024-01-21T00:25:56.386Z,73.23
2024-01-21T00:29:01.763Z,73.04
2024-01-21T00:32:03.762Z,73.81
2024-01-21T00:35:05.936Z,73.89
2024-01-21T00:38:07.629Z,74.12
2024-01-21T00:41:13.590Z,74.30
2024-01-21T00:44:15.277Z,73.47
2024-01-21T00:47:17.008Z,73.67
2024-01-21T00:50:18.842Z,73.68
2024-01-21T00:53:20.557Z,73.42
2024-01-21T00:56:22.267Z,74.67
2024-01-21T00:59:24.069Z,73.42
2024-01-21T01:02:25.745Z,74.19
2024-01-21T01:05:27.531Z,74.54
2024-01-21T01:08:29.225Z,74.01
2024-01-21T01:11:31.876Z,74.86
2024-01-21T01:14:33.616Z,75.05
2024-01-21T01:17:35.591Z,74.70
2024-01-21T01:20:37.226Z,74.65
2024-01-21T01:23:38.970Z,74.39
2024-01-21T01:26:40.702Z,74.47
2024-01-21T01:29:42.379Z,74.87
2024-01-21T01:32:44.072Z,75.40
2024-01-21T01:35:45.887Z,75.57
2024-01-21T01:38:47.643Z,75.33
2024-01-21T01:41:49.350Z,75.52
2024-01-21T01:44:51.064Z,75.12
2024-01-21T01:47:53.306Z,74.31
2024-01-21T01:50:58.005Z,74.86
2024-01-21T01:54:00.032Z,75.30
2024-01-21T01:57:04.784Z,74.18
2024-01-21T02:00:10.416Z,74.63
2024-01-21T02:03:15.977Z,74.78
2024-01-21T02:06:17.766Z,75.70
2024-01-21T02:09:19.929Z,75.05
2024-01-21T02:12:21.800Z,75.36
2024-01-21T02:15:24.061Z,74.64
2024-01-21T02:18:26.167Z,75.36
2024-01-21T02:21:27.941Z,75.45
2024-01-21T02:24:31.430Z,75.32
2024-01-21T02:27:33.552Z,74.64
2024-01-21T02:30:41.958Z,74.44
2024-01-21T02:33:43.717Z,73.97
2024-01-21T02:36:45.462Z,74.32
2024-01-21T02:39:47.336Z,74.20
2024-01-21T02:42:49.072Z,73.92
2024-01-21T02:45:50.870Z,74.22
2024-01-21T02:48:52.688Z,74.92
2024-01-21T02:51:54.438Z,74.72
2024-01-21T02:54:56.286Z,75.11
2024-01-21T02:57:58.052Z,75.70
2024-01-21T03:00:59.814Z,75.30
2024-01-21T03:04:01.792Z,75.79
2024-01-21T03:07:03.633Z,75.80
2024-01-21T03:10:06.748Z,76.02
2024-01-21T03:13:08.583Z,75.45
2024-01-21T03:16:12.196Z,75.37
2024-01-21T03:19:13.896Z,75.95
2024-01-21T03:22:15.603Z,76.09
2024-01-21T03:25:17.774Z,76.19
2024-01-21T03:28:19.550Z,75.94
2024-01-21T03:31:21.231Z,76.35
2024-01-21T03:34:22.984Z,75.99
2024-01-21T03:37:24.823Z,75.44
2024-01-21T03:40:26.486Z,75.99
2024-01-21T03:43:28.172Z,75.34
2024-01-21T03:46:29.841Z,76.58
2024-01-21T03:49:31.863Z,76.00
2024-01-21T03:52:33.678Z,75.74
2024-01-21T03:55:35.386Z,76.36
2024-01-21T03:58:37.075Z,76.49
2024-01-21T04:01:45.627Z,76.76
2024-01-21T04:04:47.404Z,76.79
2024-01-21T04:07:49.169Z,75.88
2024-01-21T04:10:51.916Z,75.74
2024-01-21T04:13:53.624Z,75.18
2024-01-21T04:16:55.296Z,74.58
2024-01-21T04:19:56.946Z,74.87
2024-01-21T04:22:58.616Z,74.94
2024-01-21T04:26:01.213Z,75.31
2024-01-21T04:29:03.058Z,75.78
2024-01-21T04:32:04.947Z,74.52
2024-01-21T04:35:07.198Z,74.66
2024-01-21T04:38:08.968Z,74.67
2024-01-21T04:41:10.703Z,74.64
2024-01-21T04:44:12.451Z,75.49
2024-01-21T04:47:14.149Z,74.97
2024-01-21T04:50:15.926Z,75.21
2024-01-21T04:53:17.660Z,75.20
2024-01-21T04:56:19.875Z,75.22
2024-01-21T04:59:21.569Z,75.51
2024-01-21T05:02:23.238Z,74.96
2024-01-21T05:05:24.937Z,75.19
2024-01-21T05:08:26.622Z,74.50
2024-01-21T05:11:28.436Z,74.48
2024-01-21T05:14:30.094Z,74.48
2024-01-21T05:17:31.817Z,75.07
2024-01-21T05:20:33.595Z,75.23
2024-01-21T05:23:35.241Z,75.61
2024-01-21T05:26:44.435Z,76.13
2024-01-21T05:29:46.208Z,75.67
2024-01-21T05:32:51.362Z,75.74
2024-01-21T05:35:53.187Z,75.15
2024-01-21T05:38:55.208Z,75.34
2024-01-21T05:42:04.236Z,74.68
2024-01-21T05:45:06.419Z,74.99
2024-01-21T05:48:08.713Z,74.37
2024-01-21T05:51:11.265Z,74.56
2024-01-21T05:54:12.979Z,74.19
2024-01-21T05:57:14.787Z,74.60
2024-01-21T06:00:17.082Z,74.17
2024-01-21T06:03:18.904Z,74.04
2024-01-21T06:06:20.805Z,73.99
2024-01-21T06:09:22.527Z,74.12
2024-01-21T06:12:24.236Z,74.06
2024-01-21T06:15:25.944Z,73.36
2024-01-21T06:18:27.813Z,73.95
2024-01-21T06:21:29.584Z,73.90
2024-01-21T06:24:31.354Z,73.67
2024-01-21T06:27:33.085Z,73.20
2024-01-21T06:30:34.905Z,73.77
2024-01-21T06:33:36.740Z,73.73
2024-01-21T06:36:38.687Z,73.61
2024-01-21T06:39:40.411Z,73.40
2024-01-21T06:42:42.201Z,73.64
2024-01-21T06:45:43.926Z,73.60
2024-01-21T06:48:45.680Z,73.86
2024-01-21T06:51:55.701Z,73.90
2024-01-21T06:54:57.740Z,73.40
2024-01-21T06:57:59.518Z,73.77
2024-01-21T07:01:02.094Z,73.37
2024-01-21T07:04:04.089Z,73.65
2024-01-21T07:07:06.225Z,73.41
2024-01-21T07:10:08.543Z,73.60
2024-01-21T07:13:11.050Z,73.45
2024-01-21T07:16:12.909Z,73.75
2024-01-21T07:19:14.901Z,74.11
2024-01-21T07:22:16.644Z,73.97
2024-01-21T07:25:18.387Z,74.12
2024-01-21T07:28:20.279Z,74.15
2024-01-21T07:31:22.000Z,73.81
2024-01-21T07:34:24.081Z,73.98
2024-01-21T07:37:25.914Z,73.31
2024-01-21T07:40:28.284Z,73.25
2024-01-21T07:43:31.269Z,74.53
2024-01-21T07:46:33.007Z,74.09
2024-01-21T07:49:34.780Z,71.72
2024-01-21T07:52:36.564Z,70.69
2024-01-21T07:55:38.486Z,70.83
2024-01-21T07:58:40.234Z,70.06
2024-01-21T08:01:42.376Z,71.37
2024-01-21T08:04:44.228Z,71.49
2024-01-21T08:07:46.453Z,70.82
2024-01-21T08:10:48.178Z,71.34
2024-01-21T08:13:49.845Z,71.71
2024-01-21T08:16:51.594Z,71.46
2024-01-21T08:19:53.595Z,70.97
2024-01-21T08:22:55.580Z,71.39
2024-01-21T08:25:57.329Z,71.61
2024-01-21T08:28:59.394Z,71.48
2024-01-21T08:32:02.210Z,71.47
2024-01-21T08:35:04.242Z,71.79
2024-01-21T08:38:05.994Z,71.80
2024-01-21T08:41:07.895Z,71.80
2024-01-21T08:44:10.026Z,71.86
2024-01-21T08:47:12.661Z,71.54
2024-01-21T08:50:14.407Z,71.15
2024-01-21T08:53:16.158Z,70.82
2024-01-21T08:56:17.798Z,71.63
2024-01-21T08:59:19.492Z,71.35
2024-01-21T09:02:21.155Z,70.55
2024-01-21T09:05:23.130Z,70.02
2024-01-21T09:08:24.915Z,69.96
2024-01-21T09:11:26.975Z,69.56
2024-01-21T09:14:28.787Z,69.26
2024-01-21T09:17:30.620Z,68.70
2024-01-21T09:20:32.399Z,68.95
2024-01-21T09:23:34.268Z,69.48
2024-01-21T09:26:36.087Z,67.92
2024-01-21T09:29:37.822Z,68.05
2024-01-21T09:32:39.605Z,66.76
2024-01-21T09:35:41.624Z,67.31
2024-01-21T09:38:43.671Z,67.05
2024-01-21T09:41:52.091Z,67.10
2024-01-21T09:44:53.854Z,66.32
2024-01-21T09:47:55.993Z,66.55
2024-01-21T09:50:59.991Z,66.30
2024-01-21T09:54:05.908Z,66.26
2024-01-21T09:57:09.862Z,65.41
2024-01-21T10:00:14.936Z,65.01
2024-01-21T10:03:17.061Z,65.43
2024-01-21T10:06:19.089Z,63.79
2024-01-21T10:09:24.885Z,64.78
2024-01-21T10:12:26.971Z,63.25
2024-01-21T10:15:31.267Z,63.44
2024-01-21T10:18:33.744Z,64.04
2024-01-21T10:21:35.597Z,63.84
2024-01-21T10:24:57.841Z,63.89
2024-01-21T10:27:59.595Z,64.21
2024-01-21T10:31:01.722Z,64.00
2024-01-21T10:34:04.325Z,63.64
2024-01-21T10:37:06.344Z,63.04
2024-01-21T10:40:10.565Z,61.03
2024-01-21T10:43:15.950Z,59.60
2024-01-21T10:46:19.571Z,58.00
2024-01-21T10:49:21.842Z,59.52
2024-01-21T10:52:24.610Z,59.45
2024-01-21T10:55:27.099Z,60.82
2024-01-21T10:58:29.650Z,58.24
2024-01-21T11:01:32.523Z,59.55
2024-01-21T11:04:35.939Z,58.91
2024-01-21T11:07:39.131Z,59.55
2024-01-21T11:10:40.839Z,59.31
2024-01-21T11:13:46.964Z,57.61
2024-01-21T11:16:48.756Z,58.40
2024-01-21T11:19:50.694Z,59.07
2024-01-21T11:22:52.636Z,58.77
2024-01-21T11:25:55.072Z,60.64
2024-01-21T11:29:01.816Z,56.99
2024-01-21T11:32:04.289Z,56.76
2024-01-21T11:35:10.916Z,56.70
2024-01-21T11:38:12.710Z,56.44
2024-01-21T11:41:15.673Z,58.44
2024-01-21T11:44:30.211Z,59.12
2024-01-21T11:47:33.507Z,56.96
2024-01-21T11:50:36.220Z,56.08
2024-01-21T11:53:37.887Z,55.34
2024-01-21T11:56:45.389Z,56.07
2024-01-21T11:59:48.126Z,56.99
2024-01-21T12:02:49.783Z,57.54
2024-01-21T12:05:51.673Z,57.47
2024-01-21T12:08:56.984Z,55.08
2024-01-21T12:12:00.403Z,57.65
2024-01-21T12:15:03.655Z,57.73
2024-01-21T12:18:06.069Z,57.97
2024-01-21T12:21:08.123Z,58.79
2024-01-21T12:24:10.126Z,58.38
2024-01-21T12:27:15.348Z,56.93
2024-01-21T12:30:17.888Z,55.77
2024-01-21T12:33:19.804Z,57.29
2024-01-21T12:36:21.670Z,58.49
2024-01-21T12:39:24.758Z,59.64
2024-01-21T12:42:28.299Z,59.04
2024-01-21T12:45:30.004Z,59.01
2024-01-21T12:48:31.876Z,60.12
2024-01-21T12:51:33.743Z,61.04
2024-01-21T12:54:36.118Z,61.28
2024-01-21T12:57:38.052Z,61.43
2024-01-21T13:00:43.124Z,61.37
2024-01-21T13:03:45.166Z,61.92
2024-01-21T13:06:47.530Z,59.88
2024-01-21T13:09:50.057Z,59.84
2024-01-21T13:12:52.014Z,60.63
2024-01-21T13:15:53.737Z,59.29
2024-01-21T13:18:55.485Z,58.92
2024-01-21T13:21:57.359Z,59.08
2024-01-21T13:24:59.826Z,59.05
2024-01-21T13:28:15.129Z,60.18
2024-01-21T13:31:16.906Z,58.71
2024-01-21T13:34:18.645Z,59.53
2024-01-21T13:37:26.728Z,60.08
2024-01-21T13:40:29.450Z,59.14
2024-01-21T13:43:32.112Z,58.62
2024-01-21T13:46:34.801Z,58.01
2024-01-21T13:49:37.101Z,58.07
2024-01-21T13:52:39.342Z,57.68
2024-01-21T13:55:41.164Z,59.16
2024-01-21T13:58:42.848Z,57.92
2024-01-21T14:01:53.862Z,59.18
2024-01-21T14:04:59.520Z,57.92
2024-01-21T14:08:01.221Z,57.58
2024-01-21T14:11:03.111Z,58.12
2024-01-21T14:14:04.999Z,56.77
2024-01-21T14:17:06.892Z,56.83
2024-01-21T14:20:12.024Z,56.95
2024-01-21T14:23:13.959Z,56.85
2024-01-21T14:26:16.707Z,56.39
2024-01-21T14:29:26.268Z,56.34
2024-01-21T14:32:28.165Z,56.55
2024-01-21T14:35:31.112Z,56.08
2024-01-21T14:38:32.836Z,56.67
2024-01-21T14:41:34.910Z,56.51
2024-01-21T14:44:36.654Z,56.86
2024-01-21T14:47:38.620Z,56.46
2024-01-21T14:50:40.526Z,56.69
2024-01-21T14:53:42.374Z,56.54
2024-01-21T14:56:44.183Z,55.13
2024-01-21T14:59:45.989Z,54.94
2024-01-21T15:02:47.836Z,55.82
2024-01-21T15:05:49.607Z,55.49
2024-01-21T15:08:51.306Z,55.66
2024-01-21T15:11:53.086Z,55.57
2024-01-21T15:15:04.698Z,56.87
2024-01-21T15:18:12.402Z,56.40
2024-01-21T15:21:19.424Z,56.19
2024-01-21T15:24:21.266Z,56.44
2024-01-21T15:27:24.440Z,56.91
2024-01-21T15:30:26.385Z,56.06
2024-01-21T15:33:32.456Z,56.61
2024-01-21T15:36:36.396Z,56.87
2024-01-21T15:39:38.137Z,56.54
2024-01-21T15:42:41.352Z,56.84
2024-01-21T15:45:43.250Z,58.58
2024-01-21T15:48:45.167Z,58.47
2024-01-21T15:51:49.064Z,59.28
2024-01-21T15:54:52.389Z,60.96
2024-01-21T15:57:54.230Z,61.99
2024-01-21T16:00:56.126Z,63.21
2024-01-21T16:03:58.720Z,63.49
2024-01-21T16:07:00.622Z,62.70
2024-01-21T16:10:02.540Z,61.11
2024-01-21T16:13:04.952Z,61.99
2024-01-21T16:16:07.092Z,62.67
2024-01-21T16:19:09.048Z,63.12
2024-01-21T16:22:11.331Z,64.04
2024-01-21T16:25:13.276Z,63.47
2024-01-21T16:28:15.254Z,63.53
2024-01-21T16:31:17.793Z,64.74
2024-01-21T16:34:19.634Z,64.10
2024-01-21T16:37:21.414Z,64.33
2024-01-21T16:40:23.466Z,66.05
2024-01-21T16:43:25.383Z,67.31
2024-01-21T16:46:27.166Z,66.99
2024-01-21T16:49:28.954Z,67.85
2024-01-21T16:52:33.954Z,68.04
2024-01-21T16:55:35.736Z,67.98
2024-01-21T16:58:37.871Z,68.21
2024-01-21T17:01:45.525Z,68.16
2024-01-21T17:04:47.973Z,67.23
2024-01-21T17:07:49.889Z,66.91
2024-01-21T17:10:57.599Z,66.30
2024-01-21T17:13:59.334Z,65.94
2024-01-21T17:17:01.677Z,65.41
2024-01-21T17:20:06.118Z,65.26
2024-01-21T17:23:08.994Z,66.25
2024-01-21T17:26:13.200Z,64.93
2024-01-21T17:29:14.958Z,65.11
2024-01-21T17:32:16.658Z,65.71
2024-01-21T17:35:18.514Z,66.45
2024-01-21T17:38:20.193Z,65.68
2024-01-21T17:41:23.287Z,66.20
2024-01-21T17:44:24.988Z,66.22
2024-01-21T17:47:26.977Z,66.43
2024-01-21T17:50:28.884Z,66.92
2024-01-21T17:53:30.622Z,67.41
2024-01-21T17:56:32.688Z,67.21
2024-01-21T17:59:34.601Z,67.55
2024-01-21T18:02:36.452Z,67.58
2024-01-21T18:05:38.384Z,67.82
2024-01-21T18:08:40.247Z,68.04
2024-01-21T18:11:42.098Z,68.40
2024-01-21T18:14:43.812Z,67.78
2024-01-21T18:17:46.124Z,68.30
2024-01-21T18:20:48.280Z,67.87
2024-01-21T18:23:50.764Z,68.23
2024-01-21T18:26:52.618Z,67.93
2024-01-21T18:29:54.532Z,68.37
2024-01-21T18:32:56.461Z,68.35
2024-01-21T18:35:58.246Z,68.43
2024-01-21T18:39:00.046Z,67.65
2024-01-21T18:42:02.043Z,68.39
2024-01-21T18:45:04.073Z,69.97
2024-01-21T18:48:06.703Z,68.32
2024-01-21T18:51:08.937Z,68.01
2024-01-21T18:54:11.701Z,68.23
2024-01-21T18:57:14.958Z,68.13
2024-01-21T19:00:17.065Z,67.75
2024-01-21T19:03:19.076Z,67.73
2024-01-21T19:06:21.650Z,66.91
2024-01-21T19:09:24.482Z,67.04
2024-01-21T19:12:27.344Z,67.11
2024-01-21T19:15:30.905Z,66.28
2024-01-21T19:18:32.727Z,65.75
2024-01-21T19:21:35.048Z,66.17
2024-01-21T19:24:37.523Z,65.87
2024-01-21T19:27:39.249Z,65.95
2024-01-21T19:30:40.931Z,65.96
2024-01-21T19:33:42.796Z,66.10
2024-01-21T19:36:45.642Z,66.09
2024-01-21T19:39:50.836Z,66.37
2024-01-21T19:42:52.518Z,66.47
2024-01-21T19:45:54.190Z,65.70
2024-01-21T19:48:56.975Z,65.94
2024-01-21T19:52:00.205Z,65.81
2024-01-21T19:55:02.263Z,66.20
2024-01-21T19:58:06.035Z,65.16
2024-01-21T20:01:07.850Z,66.79
2024-01-21T20:04:14.499Z,66.64
2024-01-21T20:07:20.287Z,67.57
2024-01-21T20:10:23.095Z,66.75
2024-01-21T20:13:25.056Z,68.19
2024-01-21T20:16:26.967Z,67.67
2024-01-21T20:19:28.674Z,67.82
2024-01-21T20:22:30.376Z,67.74
2024-01-21T20:25:33.503Z,67.48
2024-01-21T20:28:35.396Z,67.66
2024-01-21T20:31:37.139Z,68.27
2024-01-21T20:34:39.870Z,67.51
2024-01-21T20:37:41.956Z,67.88
2024-01-21T20:40:43.704Z,66.91
2024-01-21T20:43:48.328Z,66.50
2024-01-21T20:46:50.464Z,67.24
2024-01-21T20:49:52.254Z,67.40
2024-01-21T20:52:56.330Z,66.86
2024-01-21T20:55:58.189Z,65.90
2024-01-21T20:59:00.134Z,66.71
2024-01-21T21:02:01.899Z,66.69
2024-01-21T21:05:03.650Z,66.32
2024-01-21T21:08:06.601Z,66.29
2024-01-21T21:11:08.357Z,66.90
2024-01-21T21:14:10.103Z,66.17
2024-01-21T21:17:11.930Z,66.97
2024-01-21T21:20:13.688Z,66.05
2024-01-21T21:23:15.525Z,65.40
2024-01-21T21:26:17.205Z,65.80
2024-01-21T21:29:18.908Z,65.29
2024-01-21T21:32:20.604Z,65.34
2024-01-21T21:35:22.370Z,64.64
2024-01-21T21:38:24.119Z,64.57
2024-01-21T21:41:25.833Z,64.27
2024-01-21T21:44:27.781Z,64.95
2024-01-21T21:47:29.529Z,64.22
2024-01-21T21:50:31.859Z,64.31
2024-01-21T21:53:33.943Z,63.99
2024-01-21T21:56:36.023Z,64.33
2024-01-21T21:59:37.829Z,64.76
2024-01-21T22:02:40.108Z,64.37
2024-01-21T22:05:41.934Z,64.88
2024-01-21T22:08:44.106Z,64.75
2024-01-21T22:11:45.908Z,64.62
2024-01-21T22:14:47.775Z,64.37
2024-01-21T22:17:49.764Z,65.55
2024-01-21T22:20:51.651Z,65.05
2024-01-21T22:23:53.352Z,63.79
2024-01-21T22:26:55.214Z,64.23
2024-01-21T22:29:57.013Z,64.27
2024-01-21T22:32:59.519Z,64.54
2024-01-21T22:36:01.690Z,64.46
2024-01-21T22:39:04.694Z,65.15
2024-01-21T22:42:06.567Z,64.58
2024-01-21T22:45:09.894Z,66.02
2024-01-21T22:48:11.835Z,65.35
2024-01-21T22:51:13.856Z,65.80
2024-01-21T22:54:15.654Z,66.05
2024-01-21T22:57:17.369Z,66.46
2024-01-21T23:00:22.708Z,66.48
2024-01-21T23:03:24.618Z,67.23
2024-01-21T23:06:26.318Z,66.41
2024-01-21T23:09:28.011Z,66.92
2024-01-21T23:12:29.726Z,66.98
2024-01-21T23:15:31.408Z,65.92
2024-01-21T23:18:33.195Z,66.49
2024-01-21T23:21:35.020Z,65.66
2024-01-21T23:24:36.690Z,64.93
2024-01-21T23:27:38.472Z,64.89
2024-01-21T23:30:40.161Z,63.79
2024-01-21T23:33:41.930Z,63.71
2024-01-21T23:36:43.660Z,64.11
2024-01-21T23:39:45.363Z,63.83
2024-01-21T23:42:47.189Z,63.59
2024-01-21T23:45:48.929Z,64.54
2024-01-21T23:48:50.721Z,63.95
2024-01-21T23:51:52.630Z,64.00
2024-01-21T23:54:54.370Z,64.03
2024-01-21T23:57:57.048Z,64.33
